Time;durP1;ratioP1;P1;durP2;ratioP2;P2;SDS_P1;SDS_P2;PMS_P1;PMS_P2;Temp;Humidity;BMP_temperature;BMP_pressure;BME280_temperature;BME280_humidity;BME280_pressure;Samples;Min_cycle;Max_cycle;Signal;HPM_P1;HPM_P2
2023/06/11 00:01:08;;;;;;;;;16.00;14.33;;;;;26.44;49.85;100727.38;6161221;23;44887;-66
2023/06/11 00:03:36;;;;;;;;;18.33;15.67;;;;;26.39;49.91;100719.34;6160805;23;45072;-69
2023/06/11 00:06:02;;;;;;;;;16.33;14.00;;;;;26.32;50.48;100705.97;6134105;23;44913;-65
2023/06/11 00:08:27;;;;;;;;;17.67;13.67;;;;;26.29;50.81;100716.06;6158581;23;45131;-66
2023/06/11 00:10:53;;;;;;;;;17.33;15.33;;;;;26.31;50.85;100729.72;6160865;23;45079;-65
2023/06/11 00:13:18;;;;;;;;;17.00;14.67;;;;;26.31;51.06;100713.28;6159560;23;45338;-67
2023/06/11 00:15:43;;;;;;;;;17.33;15.67;;;;;26.29;50.96;100721.53;6160852;23;44985;-66
2023/06/11 00:18:09;;;;;;;;;15.33;13.33;;;;;26.24;50.73;100712.63;6161400;23;45406;-67
2023/06/11 00:20:40;;;;;;;;;16.67;14.33;;;;;26.29;51.23;100716.06;6160099;23;45965;-66
2023/06/11 00:23:06;;;;;;;;;21.67;18.33;;;;;26.26;51.36;100721.66;6160072;23;45160;-66
2023/06/11 00:25:32;;;;;;;;;21.33;18.67;;;;;26.05;50.92;100686.91;6159320;23;45226;-65
2023/06/11 00:27:57;;;;;;;;;16.67;15.00;;;;;26.24;51.22;100718.09;6134267;23;45279;-68
2023/06/11 00:30:23;;;;;;;;;16.67;14.67;;;;;26.13;51.53;100700.31;6133866;23;45096;-66
2023/06/11 00:32:49;;;;;;;;;18.33;18.00;;;;;26.22;51.90;100725.50;6160125;23;51555;-67
2023/06/11 00:35:15;;;;;;;;;16.67;16.00;;;;;26.16;52.45;100712.03;6160560;23;45197;-69
2023/06/11 00:37:40;;;;;;;;;17.00;15.33;;;;;26.20;52.91;100723.75;6160371;23;45356;-66
2023/06/11 00:40:06;;;;;;;;;18.67;14.67;;;;;26.21;52.74;100731.03;6160297;23;45118;-67
2023/06/11 00:42:33;;;;;;;;;20.33;17.67;;;;;26.18;53.08;100725.66;6159320;23;46163;-66
2023/06/11 00:45:01;;;;;;;;;13.00;12.67;;;;;26.18;52.81;100734.75;6159708;23;45221;-68
2023/06/11 00:47:26;;;;;;;;;17.00;15.33;;;;;26.15;52.71;100729.44;6160215;23;45220;-69
2023/06/11 00:49:53;;;;;;;;;19.67;16.00;;;;;26.09;52.71;100724.19;6160754;23;45181;-66
2023/06/11 00:52:19;;;;;;;;;17.33;16.33;;;;;26.08;52.95;100723.28;6158845;23;45625;-66
2023/06/11 00:54:45;;;;;;;;;18.33;18.00;;;;;26.13;52.62;100736.78;6133706;23;45318;-67
2023/06/11 00:57:12;;;;;;;;;17.33;16.33;;;;;26.14;52.77;100741.34;6159873;23;45033;-67
2023/06/11 00:59:38;;;;;;;;;19.33;16.33;;;;;26.06;52.08;100732.53;6159712;23;45087;-68
2023/06/11 01:02:15;;;;;;;;;16.67;14.67;;;;;26.07;52.38;100743.41;6160091;23;45653;-67
2023/06/11 01:04:41;;;;;;;;;15.33;13.00;;;;;26.01;52.27;100742.75;6159741;23;45207;-66
2023/06/11 01:07:10;;;;;;;;;16.33;13.33;;;;;25.98;52.16;100743.75;6160392;23;45018;-67
2023/06/11 01:09:37;;;;;;;;;13.33;13.00;;;;;25.99;52.21;100740.06;6161187;23;44974;-66
2023/06/11 01:12:02;;;;;;;;;15.00;13.67;;;;;26.00;52.11;100746.44;6156875;23;46409;-66
2023/06/11 01:14:28;;;;;;;;;9.33;9.33;;;;;26.00;51.62;100743.69;6149622;23;45405;-65
2023/06/11 01:17:04;;;;;;;;;15.33;12.33;;;;;25.95;51.67;100743.81;6149765;23;45496;-67
2023/06/11 01:20:03;;;;;;;;;10.33;10.00;;;;;25.94;51.25;100744.78;6153079;23;45532;-65
2023/06/11 01:22:49;;;;;;;;;12.00;8.33;;;;;25.85;51.25;100732.31;6079956;23;45522;-65
2023/06/11 01:25:29;;;;;;;;;12.00;9.67;;;;;25.90;51.05;100749.50;6160194;23;44913;-66
2023/06/11 01:28:10;;;;;;;;;9.33;9.33;;;;;25.84;50.58;100740.63;6160548;23;45162;-67
2023/06/11 01:30:39;;;;;;;;;8.00;8.00;;;;;25.85;50.40;100736.91;6160992;23;45439;-66
2023/06/11 01:33:05;;;;;;;;;9.67;8.67;;;;;25.85;50.29;100734.19;6159613;23;45286;-66
2023/06/11 01:35:33;;;;;;;;;10.67;9.67;;;;;25.83;50.47;100730.63;6160477;23;44961;-66
2023/06/11 01:37:59;;;;;;;;;9.67;8.00;;;;;25.82;50.42;100728.81;6160104;23;45005;-67
2023/06/11 01:40:26;;;;;;;;;8.00;7.33;;;;;25.73;50.33;100706.31;6161357;23;45230;-66
2023/06/11 01:42:52;;;;;;;;;9.00;7.67;;;;;25.82;50.10;100721.53;6160828;23;45100;-66
2023/06/11 01:45:18;;;;;;;;;10.33;9.00;;;;;25.83;49.71;100719.66;6161199;23;44830;-67
2023/06/11 01:47:44;;;;;;;;;10.00;8.33;;;;;25.70;49.88;100702.81;6160799;23;45001;-65
2023/06/11 01:50:11;;;;;;;;;7.33;7.33;;;;;25.78;49.82;100718.94;6160373;23;45093;-65
2023/06/11 01:52:38;;;;;;;;;6.33;6.00;;;;;25.77;49.92;100728.09;6160961;23;45088;-66
2023/06/11 01:55:04;;;;;;;;;7.33;6.33;;;;;25.73;50.10;100728.22;6134920;23;45006;-65
2023/06/11 01:57:30;;;;;;;;;8.33;8.33;;;;;25.68;50.19;100719.28;6161369;23;44934;-65
2023/06/11 01:59:55;;;;;;;;;6.67;6.67;;;;;25.60;50.10;100705.00;6135454;23;44986;-65
2023/06/11 02:02:20;;;;;;;;;8.00;8.00;;;;;25.68;50.23;100721.13;6160485;23;45486;-65
2023/06/11 02:04:46;;;;;;;;;7.00;7.00;;;;;25.66;50.69;100718.44;6160160;23;44958;-66
2023/06/11 02:07:11;;;;;;;;;7.67;7.67;;;;;25.63;50.51;100720.41;6160045;23;45328;-66
2023/06/11 02:09:36;;;;;;;;;10.33;7.33;;;;;25.67;50.97;100728.47;6160445;23;44951;-65
2023/06/11 02:12:02;;;;;;;;;8.00;8.00;;;;;25.68;50.91;100732.97;6160048;23;46173;-65
2023/06/11 02:14:27;;;;;;;;;7.33;6.67;;;;;25.68;51.27;100726.59;6161314;23;45106;-65
2023/06/11 02:16:52;;;;;;;;;6.33;6.00;;;;;25.56;50.99;100706.06;6159463;23;49916;-67
2023/06/11 02:19:18;;;;;;;;;7.67;6.33;;;;;25.63;50.98;100718.56;6133423;23;45132;-65
2023/06/11 02:21:43;;;;;;;;;8.67;6.67;;;;;25.67;50.72;100717.50;6159172;23;52707;-65
2023/06/11 02:24:09;;;;;;;;;7.00;7.00;;;;;25.52;50.44;100691.63;6160450;23;45172;-66
2023/06/11 02:26:35;;;;;;;;;9.33;8.33;;;;;25.65;50.87;100713.91;6160535;23;44845;-65
2023/06/11 02:29:01;;;;;;;;;9.67;7.00;;;;;25.67;50.80;100722.06;6161229;23;44980;-66
2023/06/11 02:31:27;;;;;;;;;9.00;9.00;;;;;25.62;51.13;100713.16;6134065;23;45045;-65
2023/06/11 02:33:52;;;;;;;;;9.33;8.33;;;;;25.65;50.86;100713.03;6159871;23;45001;-65
2023/06/11 02:36:17;;;;;;;;;10.33;10.33;;;;;25.63;51.02;100712.22;6159960;23;45059;-65
2023/06/11 02:38:43;;;;;;;;;10.33;8.33;;;;;25.56;51.39;100701.47;6162102;23;45131;-64
2023/06/11 02:41:08;;;;;;;;;10.67;7.67;;;;;25.60;50.97;100709.56;6160004;23;59854;-66
2023/06/11 02:43:33;;;;;;;;;8.00;8.00;;;;;25.55;50.69;100693.31;6160709;23;48591;-66
2023/06/11 02:45:59;;;;;;;;;7.33;5.00;;;;;25.58;50.79;100706.91;6134113;23;44869;-66
2023/06/11 02:48:25;;;;;;;;;12.00;8.00;;;;;25.58;50.98;100701.44;6156153;23;44889;-65
2023/06/11 02:50:50;;;;;;;;;8.33;8.00;;;;;25.57;51.28;100696.88;6149828;23;52213;-67
2023/06/11 02:53:15;;;;;;;;;8.67;8.00;;;;;25.58;51.09;100704.16;6122960;23;45581;-65
2023/06/11 02:55:40;;;;;;;;;11.33;9.33;;;;;25.52;51.21;100690.69;6150525;23;45347;-65
2023/06/11 02:58:06;;;;;;;;;10.67;10.67;;;;;25.54;50.93;100703.38;6147533;23;47101;-66
2023/06/11 03:00:32;;;;;;;;;10.00;8.00;;;;;25.54;50.88;100703.38;6151622;23;46054;-67
2023/06/11 03:02:58;;;;;;;;;17.00;13.00;;;;;25.52;50.81;100702.56;6152351;23;45273;-68
2023/06/11 03:05:23;;;;;;;;;12.00;6.33;;;;;25.50;50.09;100693.50;6149385;23;46127;-65
2023/06/11 03:07:49;;;;;;;;;8.33;8.33;;;;;25.50;49.80;100698.97;6149454;23;45523;-66
2023/06/11 03:10:14;;;;;;;;;11.33;10.33;;;;;25.47;49.73;100696.34;6121512;23;45430;-66
2023/06/11 03:12:40;;;;;;;;;10.00;8.67;;;;;25.34;50.01;100678.59;6149643;23;45291;-66
2023/06/11 03:15:07;;;;;;;;;12.67;11.00;;;;;25.32;49.44;100678.63;6148386;23;45245;-66
2023/06/11 03:17:34;;;;;;;;;9.00;9.00;;;;;25.39;49.97;100682.03;6149667;23;45462;-65
2023/06/11 03:19:59;;;;;;;;;11.00;11.00;;;;;25.35;49.93;100680.38;6120902;23;48198;-66
2023/06/11 03:22:24;;;;;;;;;11.33;8.67;;;;;25.40;49.84;100689.31;6148137;23;45313;-65
2023/06/11 03:24:50;;;;;;;;;12.00;9.67;;;;;25.33;50.11;100696.84;6149035;23;45335;-65
2023/06/11 03:27:15;;;;;;;;;9.67;9.67;;;;;25.44;50.07;100709.22;6149630;23;45499;-66
2023/06/11 03:29:40;;;;;;;;;13.33;12.33;;;;;25.44;49.86;100707.41;6148229;23;45521;-65
2023/06/11 03:32:09;;;;;;;;;12.00;10.00;;;;;25.45;50.00;100708.28;6147759;23;45367;-67
2023/06/11 03:34:34;;;;;;;;;14.33;12.67;;;;;25.44;49.83;100698.28;6150263;23;45398;-66
2023/06/11 03:36:59;;;;;;;;;14.33;11.67;;;;;25.28;50.24;100673.34;6149510;23;45641;-66
2023/06/11 03:39:25;;;;;;;;;13.00;12.00;;;;;25.43;49.95;100708.34;6148601;23;45307;-65
2023/06/11 03:41:50;;;;;;;;;17.33;15.00;;;;;25.44;50.86;100709.22;6146648;23;48805;-65
2023/06/11 03:44:15;;;;;;;;;17.33;14.67;;;;;25.43;51.71;100711.09;6148617;23;45899;-65
2023/06/11 03:46:41;;;;;;;;;17.33;14.67;;;;;25.37;51.95;100690.28;6122719;23;45501;-67
2023/06/11 03:49:06;;;;;;;;;22.00;17.33;;;;;25.40;52.07;100711.19;6147530;23;45624;-66
2023/06/11 03:51:32;;;;;;;;;18.67;17.00;;;;;25.24;52.17;100688.91;6148268;23;45281;-66
2023/06/11 03:53:57;;;;;;;;;21.00;18.67;;;;;25.28;52.32;100693.38;6146843;23;45456;-67
2023/06/11 03:56:22;;;;;;;;;22.00;18.00;;;;;25.35;52.16;100714.09;6147860;23;45496;-65
2023/06/11 03:58:48;;;;;;;;;25.33;22.33;;;;;25.29;52.64;100708.84;6148145;23;45337;-65
2023/06/11 04:01:14;;;;;;;;;20.00;15.00;;;;;25.23;52.61;100706.28;6149124;23;45244;-67
2023/06/11 04:03:39;;;;;;;;;23.67;17.33;;;;;25.31;52.27;100719.72;6148736;23;45454;-67
2023/06/11 04:06:04;;;;;;;;;20.00;17.33;;;;;25.25;52.82;100709.84;6148856;23;45454;-66
2023/06/11 04:08:30;;;;;;;;;18.67;16.33;;;;;25.26;52.90;100705.28;6149211;23;45431;-66
2023/06/11 04:10:55;;;;;;;;;19.33;17.00;;;;;25.24;52.77;100707.19;6148347;23;45347;-65
2023/06/11 04:13:20;;;;;;;;;22.33;18.67;;;;;25.26;52.89;100714.41;6152580;23;45287;-65
2023/06/11 04:15:46;;;;;;;;;16.33;16.33;;;;;25.25;52.93;100711.72;6149334;23;45183;-65
2023/06/11 04:18:11;;;;;;;;;17.67;17.00;;;;;25.04;52.91;100681.44;6149173;23;46183;-66
2023/06/11 04:20:37;;;;;;;;;23.67;21.00;;;;;25.15;53.02;100709.28;6122311;23;46020;-66
2023/06/11 04:23:02;;;;;;;;;19.33;18.33;;;;;25.18;52.86;100719.25;6149101;23;45580;-66
2023/06/11 04:25:31;;;;;;;;;18.67;17.33;;;;;25.16;53.25;100711.09;6150564;23;45422;-66
2023/06/11 04:27:57;;;;;;;;;17.67;15.33;;;;;25.14;53.27;100706.59;6148121;23;46522;-67
2023/06/11 04:30:22;;;;;;;;;17.33;17.33;;;;;25.12;53.25;100705.78;6151741;23;45466;-68
2023/06/11 04:32:54;;;;;;;;;17.67;17.33;;;;;25.22;53.01;100722.75;6151586;23;45376;-66
2023/06/11 04:35:21;;;;;;;;;21.33;18.00;;;;;25.24;52.85;100720.84;6156539;23;45285;-67
2023/06/11 04:37:47;;;;;;;;;23.33;19.33;;;;;25.25;53.04;100730.84;6146949;23;46907;-66
2023/06/11 04:40:14;;;;;;;;;25.00;22.00;;;;;25.18;53.10;100720.13;6148006;23;45370;-66
2023/06/11 04:42:43;;;;;;;;;23.00;20.00;;;;;25.29;53.34;100732.56;6149337;23;45795;-66
2023/06/11 04:45:09;;;;;;;;;22.00;21.00;;;;;25.31;54.03;100728.81;6152117;23;45383;-65
2023/06/11 04:47:37;;;;;;;;;22.67;18.33;;;;;25.33;54.14;100732.41;6149716;23;46065;-66
2023/06/11 04:50:05;;;;;;;;;24.33;21.33;;;;;25.33;53.93;100721.47;6149477;23;45677;-66
2023/06/11 04:52:42;;;;;;;;;25.33;23.00;;;;;25.24;54.69;100704.44;6150667;23;45366;-65
2023/06/11 04:55:12;;;;;;;;;19.67;19.00;;;;;25.23;55.36;100705.38;6149128;23;45541;-66
2023/06/11 04:57:38;;;;;;;;;25.00;18.67;;;;;25.31;55.20;100728.81;6149504;23;45253;-67
2023/06/11 05:00:10;;;;;;;;;22.33;21.33;;;;;25.24;55.17;100719.00;6123928;23;45831;-67
2023/06/11 05:02:44;;;;;;;;;21.67;21.33;;;;;25.13;54.77;100716.66;6123673;23;45240;-66
2023/06/11 05:05:10;;;;;;;;;18.67;17.33;;;;;25.03;54.90;100698.78;6150010;23;45425;-66
2023/06/11 05:07:36;;;;;;;;;16.33;14.33;;;;;25.20;54.61;100731.00;6149118;23;45374;-67
2023/06/11 05:10:01;;;;;;;;;21.67;18.67;;;;;24.98;54.13;100687.13;6123313;23;45345;-66
2023/06/11 05:12:27;;;;;;;;;15.00;14.67;;;;;25.24;54.62;100731.78;6123521;23;45322;-64
2023/06/11 05:14:52;;;;;;;;;20.67;19.67;;;;;24.91;54.60;100672.75;6151635;23;45359;-66
2023/06/11 05:17:18;;;;;;;;;23.33;21.33;;;;;25.27;53.93;100732.59;6154472;23;45469;-66
2023/06/11 05:19:43;;;;;;;;;18.67;16.67;;;;;25.30;54.38;100726.16;6155430;23;45527;-66
2023/06/11 05:22:08;;;;;;;;;17.33;17.00;;;;;25.27;53.20;100718.03;6151052;23;45321;-67
2023/06/11 05:24:35;;;;;;;;;20.00;16.00;;;;;25.25;53.64;100704.41;6152523;23;45273;-66
2023/06/11 05:27:01;;;;;;;;;25.00;22.00;;;;;25.34;53.49;100733.28;6150851;23;45427;-66
2023/06/11 05:29:26;;;;;;;;;17.00;15.33;;;;;25.33;54.26;100726.94;6101183;23;45373;-67
2023/06/11 05:31:52;;;;;;;;;18.33;16.33;;;;;25.29;53.97;100713.41;6154881;23;45328;-66
2023/06/11 05:34:18;;;;;;;;;19.00;16.00;;;;;25.37;53.73;100724.97;6162953;23;45038;-66
2023/06/11 05:36:48;;;;;;;;;19.33;17.33;;;;;25.48;53.88;100730.97;6157375;23;45370;-66
2023/06/11 05:39:13;;;;;;;;;22.33;17.33;;;;;25.53;53.84;100741.75;6150721;23;45327;-66
2023/06/11 05:41:39;;;;;;;;;21.00;19.00;;;;;25.55;53.43;100739.84;6161986;23;44933;-64
2023/06/11 05:44:05;;;;;;;;;20.00;18.33;;;;;25.52;53.03;100735.38;6134411;23;45254;-66
2023/06/11 05:46:31;;;;;;;;;20.00;19.00;;;;;25.47;52.95;100725.53;6161083;23;45735;-65
2023/06/11 05:48:58;;;;;;;;;19.33;18.67;;;;;25.60;52.55;100742.41;6133810;23;44917;-65
2023/06/11 05:51:24;;;;;;;;;22.67;19.67;;;;;25.60;53.44;100736.94;6160819;23;45129;-64
2023/06/11 05:53:50;;;;;;;;;24.67;19.00;;;;;25.41;52.88;100695.66;6160698;23;44968;-65
2023/06/11 05:56:16;;;;;;;;;28.25;27.00;;;;;25.61;52.69;100736.00;6160151;23;45038;-66
2023/06/11 05:58:41;;;;;;;;;23.67;21.33;;;;;25.61;53.05;100730.53;6150485;23;45305;-67
2023/06/11 06:01:08;;;;;;;;;18.00;18.00;;;;;25.67;52.94;100717.50;6130165;23;49302;-66
2023/06/11 06:03:34;;;;;;;;;20.67;18.33;;;;;25.71;51.70;100729.25;6149043;23;45458;-68
2023/06/11 06:06:01;;;;;;;;;24.00;22.67;;;;;25.80;51.83;100728.88;6148649;23;46861;-66
2023/06/11 06:08:28;;;;;;;;;20.00;17.00;;;;;25.84;51.18;100736.03;6154199;23;45249;-65
2023/06/11 06:10:55;;;;;;;;;15.33;15.33;;;;;25.90;51.07;100746.75;6149900;23;45533;-65
2023/06/11 06:13:23;;;;;;;;;19.00;15.67;;;;;25.81;51.06;100718.84;6151565;23;45560;-65
2023/06/11 06:15:48;;;;;;;;;20.33;18.67;;;;;26.01;50.91;100743.63;6149414;23;45550;-66
2023/06/11 06:18:15;;;;;;;;;24.33;22.00;;;;;26.05;50.87;100741.66;6152658;23;45503;-66
2023/06/11 06:20:41;;;;;;;;;18.33;17.00;;;;;26.04;50.74;100751.75;6123072;23;45398;-66
2023/06/11 06:23:06;;;;;;;;;22.00;21.33;;;;;26.08;50.94;100750.66;6149273;23;45304;-69
2023/06/11 06:25:33;;;;;;;;;21.67;18.33;;;;;26.08;50.93;100741.56;6149548;23;45924;-65
2023/06/11 06:27:59;;;;;;;;;23.00;20.67;;;;;25.93;50.84;100718.38;6150014;23;45282;-65
2023/06/11 06:30:24;;;;;;;;;20.00;18.67;;;;;26.09;51.24;100754.31;6150158;23;45402;-65
2023/06/11 06:32:49;;;;;;;;;19.33;19.33;;;;;26.12;51.50;100759.66;6150358;23;45578;-64
2023/06/11 06:35:15;;;;;;;;;21.67;18.67;;;;;25.98;52.28;100732.81;6149366;23;45902;-66
2023/06/11 06:37:40;;;;;;;;;22.67;20.67;;;;;26.14;52.49;100756.88;6149072;23;45493;-65
2023/06/11 06:40:06;;;;;;;;;22.67;18.00;;;;;26.10;52.66;100753.34;6149684;23;49361;-65
2023/06/11 06:42:32;;;;;;;;;20.67;18.33;;;;;26.05;53.36;100744.41;6157009;23;45140;-65
2023/06/11 06:44:57;;;;;;;;;22.00;20.33;;;;;25.95;53.13;100727.41;6148812;23;46066;-65
2023/06/11 06:47:22;;;;;;;;;23.67;21.67;;;;;26.13;52.95;100755.06;6148589;23;45611;-64
2023/06/11 06:49:48;;;;;;;;;15.67;14.67;;;;;26.06;52.95;100746.22;6148485;23;48999;-65
2023/06/11 06:52:13;;;;;;;;;18.67;15.67;;;;;26.10;52.57;100758.81;6149328;23;45362;-66
2023/06/11 06:54:39;;;;;;;;;17.33;15.00;;;;;26.06;51.94;100765.38;6148462;23;46278;-66
2023/06/11 06:57:07;;;;;;;;;12.33;12.00;;;;;25.79;50.91;100720.72;6148740;23;45433;-67
2023/06/11 06:59:33;;;;;;;;;11.33;9.67;;;;;25.99;50.49;100758.34;6149259;23;45659;-63
2023/06/11 07:01:58;;;;;;;;;8.67;8.67;;;;;25.86;50.70;100727.78;6121925;23;45391;-65
2023/06/11 07:04:24;;;;;;;;;13.33;13.00;;;;;26.05;50.53;100760.84;6146843;23;46094;-65
2023/06/11 07:06:50;;;;;;;;;8.33;8.33;;;;;26.12;51.14;100765.16;6149140;23;45234;-65
2023/06/11 07:09:15;;;;;;;;;14.33;12.00;;;;;26.19;50.33;100769.44;6151053;23;45367;-66
2023/06/11 07:11:41;;;;;;;;;14.67;11.67;;;;;26.09;50.03;100748.84;6149970;23;45296;-68
2023/06/11 07:14:06;;;;;;;;;23.00;20.33;;;;;26.24;50.22;100767.41;6150617;23;45733;-65
2023/06/11 07:16:31;;;;;;;;;23.00;20.67;;;;;26.29;49.97;100773.59;6147858;23;45226;-65
2023/06/11 07:18:58;;;;;;;;;27.00;18.33;;;;;26.33;49.67;100777.09;6148568;23;45227;-65
2023/06/11 07:21:23;;;;;;;;;19.67;17.67;;;;;26.39;49.83;100781.47;6148346;23;45695;-65
2023/06/11 07:23:48;;;;;;;;;16.00;16.00;;;;;26.47;49.37;100785.69;6146957;23;46185;-66
2023/06/11 07:26:15;;;;;;;;;12.00;12.00;;;;;26.46;49.84;100788.47;6147400;23;45363;-65
2023/06/11 07:28:41;;;;;;;;;17.33;17.33;;;;;26.37;49.73;100777.91;6148130;23;45589;-66
2023/06/11 07:31:07;;;;;;;;;20.67;17.00;;;;;26.57;49.94;100786.22;6148765;23;45631;-66
2023/06/11 07:33:32;;;;;;;;;18.00;16.33;;;;;26.64;49.92;100781.41;6147739;23;45427;-69
2023/06/11 07:35:59;;;;;;;;;12.00;12.00;;;;;26.67;50.29;100784.91;6146697;23;45337;-66
2023/06/11 07:38:25;;;;;;;;;14.00;10.33;;;;;26.63;50.66;100769.56;6148600;23;45246;-64
2023/06/11 07:40:50;;;;;;;;;12.67;11.33;;;;;26.79;50.70;100786.25;6149373;23;45350;-66
2023/06/11 07:43:16;;;;;;;;;7.67;5.67;;;;;26.86;50.86;100789.69;6148796;23;46078;-68
2023/06/11 07:45:43;;;;;;;;;8.00;8.00;;;;;26.87;50.66;100782.34;6151420;23;45273;-65
2023/06/11 07:48:09;;;;;;;;;10.33;10.00;;;;;26.85;50.66;100782.41;6159418;23;45044;-66
2023/06/11 07:50:34;;;;;;;;;10.33;9.67;;;;;26.89;50.69;100781.31;6160358;23;44879;-67
2023/06/11 07:53:00;;;;;;;;;12.67;10.33;;;;;26.99;51.23;100790.97;6159737;23;45337;-65
2023/06/11 07:55:26;;;;;;;;;14.00;13.33;;;;;27.07;51.32;100796.09;6163235;23;45153;-66
2023/06/11 07:57:51;;;;;;;;;16.33;12.33;;;;;27.10;51.38;100795.97;6161718;23;45136;-66
2023/06/11 08:00:17;;;;;;;;;12.33;12.33;;;;;27.09;51.38;100794.22;6136781;23;45069;-65
2023/06/11 08:02:44;;;;;;;;;15.67;12.67;;;;;26.97;51.44;100768.16;6161335;23;44974;-64
2023/06/11 08:05:11;;;;;;;;;13.33;12.33;;;;;27.07;51.28;100784.25;6161980;23;44918;-66
2023/06/11 08:07:37;;;;;;;;;14.00;13.00;;;;;26.84;51.27;100751.38;6160187;23;45055;-65
2023/06/11 08:10:02;;;;;;;;;10.67;10.67;;;;;26.94;51.50;100768.31;6148771;23;45396;-67
2023/06/11 08:12:28;;;;;;;;;14.00;10.67;;;;;27.11;50.99;100785.88;6155249;23;46087;-67
2023/06/11 08:14:53;;;;;;;;;12.00;11.67;;;;;27.21;51.14;100790.06;6160952;23;45058;-68
2023/06/11 08:17:18;;;;;;;;;12.33;12.33;;;;;27.32;50.71;100784.13;6158591;23;52126;-66
2023/06/11 08:19:44;;;;;;;;;12.00;12.00;;;;;27.34;50.64;100788.59;6122856;23;45392;-65
2023/06/11 08:22:10;;;;;;;;;16.00;11.67;;;;;27.41;50.44;100786.50;6150726;23;46020;-65
2023/06/11 08:24:35;;;;;;;;;13.33;12.67;;;;;27.52;50.34;100775.94;6150368;23;45349;-67
2023/06/11 08:27:02;;;;;;;;;11.67;11.67;;;;;27.55;50.67;100770.31;6150137;23;45535;-65
2023/06/11 08:29:28;;;;;;;;;14.33;12.33;;;;;27.62;50.82;100779.19;6149497;23;45183;-66
2023/06/11 08:31:53;;;;;;;;;19.33;18.33;;;;;27.68;50.03;100778.00;6151587;23;45942;-65
2023/06/11 08:34:18;;;;;;;;;15.00;13.67;;;;;27.74;50.05;100775.00;6110546;23;45170;-66
2023/06/11 08:36:44;;;;;;;;;14.67;13.00;;;;;27.74;49.35;100764.00;6162415;23;45065;-66
2023/06/11 08:39:09;;;;;;;;;18.00;13.67;;;;;27.80;49.65;100773.81;6161644;23;45147;-66
2023/06/11 08:41:36;;;;;;;;;19.33;16.33;;;;;27.55;49.56;100737.38;6161113;23;45306;-65
2023/06/11 08:44:01;;;;;;;;;16.67;16.67;;;;;27.54;50.16;100740.19;6161446;23;45045;-66
2023/06/11 08:46:33;;;;;;;;;16.67;14.67;;;;;27.79;50.35;100777.53;6135088;23;45113;-65
2023/06/11 08:49:07;;;;;;;;;16.33;15.00;;;;;27.80;50.25;100771.97;6134379;23;45111;-67
2023/06/11 08:51:37;;;;;;;;;20.33;18.00;;;;;27.78;50.44;100782.09;6160779;23;45956;-67
2023/06/11 08:54:06;;;;;;;;;19.00;16.33;;;;;27.78;50.32;100773.88;6160643;23;44870;-67
2023/06/11 08:56:32;;;;;;;;;15.67;14.67;;;;;27.61;50.38;100751.78;6160796;23;45459;-65
2023/06/11 08:59:00;;;;;;;;;16.00;16.00;;;;;27.81;50.41;100787.47;6160817;23;45231;-66
2023/06/11 09:01:26;;;;;;;;;14.00;13.00;;;;;27.81;49.71;100775.59;6160985;23;45181;-67
2023/06/11 09:03:52;;;;;;;;;17.67;13.67;;;;;27.53;50.64;100730.16;6160296;23;44888;-66
2023/06/11 09:06:18;;;;;;;;;19.33;15.67;;;;;27.87;50.36;100765.22;6133978;23;45253;-66
2023/06/11 09:08:56;;;;;;;;;14.67;12.67;;;;;27.82;50.06;100759.06;6161074;23;45299;-66
2023/06/11 09:11:21;;;;;;;;;23.33;18.00;;;;;27.88;49.97;100746.88;6160663;23;45578;-65
2023/06/11 09:13:47;;;;;;;;;20.00;16.67;;;;;28.15;49.52;100772.25;6159873;23;44852;-66
2023/06/11 09:16:12;;;;;;;;;15.00;15.00;;;;;28.13;49.73;100766.81;6159758;23;45053;-67
2023/06/11 09:18:42;;;;;;;;;15.67;13.00;;;;;28.16;48.89;100762.13;6159117;23;45010;-66
2023/06/11 09:21:11;;;;;;;;;14.33;13.33;;;;;28.13;49.08;100758.56;6161722;23;45583;-68
2023/06/11 09:23:38;;;;;;;;;18.00;15.67;;;;;28.28;49.17;100778.06;6160664;23;45079;-66
2023/06/11 09:26:03;;;;;;;;;19.67;17.33;;;;;28.16;48.70;100759.38;6161607;23;44844;-66
2023/06/11 09:28:33;;;;;;;;;18.33;16.67;;;;;28.28;48.42;100786.31;6161146;23;45060;-66
2023/06/11 09:31:01;;;;;;;;;14.00;14.00;;;;;28.32;48.42;100768.69;6161622;23;45093;-66
2023/06/11 09:33:28;;;;;;;;;17.00;14.33;;;;;28.55;47.89;100786.81;6160033;23;44909;-66
2023/06/11 09:35:54;;;;;;;;;17.33;14.33;;;;;28.58;48.24;100778.47;6158828;23;44816;-66
2023/06/11 09:38:21;;;;;;;;;13.67;12.67;;;;;28.62;47.83;100787.44;6159036;23;44891;-67
2023/06/11 09:40:47;;;;;;;;;16.33;15.33;;;;;28.57;47.35;100795.03;6158420;23;45006;-70
2023/06/11 09:43:14;;;;;;;;;18.00;14.33;;;;;28.64;48.11;100791.94;6157916;23;44993;-66
2023/06/11 09:45:40;;;;;;;;;15.33;13.33;;;;;28.62;48.50;100790.19;6156563;23;45022;-67
2023/06/11 09:48:14;;;;;;;;;17.67;15.67;;;;;28.45;49.23;100789.13;6159651;23;45074;-65
2023/06/11 09:50:41;;;;;;;;;21.33;17.00;;;;;28.48;49.36;100793.59;6158800;23;44938;-65
2023/06/11 09:53:09;;;;;;;;;14.33;14.33;;;;;28.51;48.91;100804.44;6130496;23;45255;-66
2023/06/11 09:55:35;;;;;;;;;19.00;16.00;;;;;28.40;49.21;100784.81;6157445;23;44839;-67
2023/06/11 09:58:01;;;;;;;;;16.00;14.33;;;;;28.41;49.16;100804.00;6131761;23;45179;-67
2023/06/11 10:00:27;;;;;;;;;15.67;14.33;;;;;28.29;49.33;100796.31;6157996;23;46328;-67
2023/06/11 10:02:52;;;;;;;;;17.00;14.00;;;;;28.19;49.73;100803.19;6159134;23;45004;-66
2023/06/11 10:05:18;;;;;;;;;23.00;20.33;;;;;28.12;49.70;100808.09;6159468;23;45060;-65
2023/06/11 10:08:02;;;;;;;;;21.33;21.33;;;;;27.94;51.74;100812.56;6132874;23;45071;-66
2023/06/11 10:10:32;;;;;;;;;24.67;21.33;;;;;27.76;52.61;100812.38;6158915;23;46092;-67
2023/06/11 10:12:58;;;;;;;;;24.00;24.00;;;;;27.68;52.79;100816.44;6159270;23;44951;-66
2023/06/11 10:15:24;;;;;;;;;23.67;20.00;;;;;27.58;53.15;100810.44;6159203;23;44656;-66
2023/06/11 10:17:51;;;;;;;;;28.33;25.00;;;;;27.44;53.40;100801.91;6160045;23;44924;-66
2023/06/11 10:20:24;;;;;;;;;41.00;32.00;;;;;27.54;53.33;100826.16;6158776;23;45973;-67
2023/06/11 10:22:50;;;;;;;;;30.33;24.67;;;;;27.52;53.56;100822.59;6158150;23;45203;-66
2023/06/11 10:25:16;;;;;;;;;30.33;23.00;;;;;27.48;52.96;100828.28;6158538;23;45324;-67
2023/06/11 10:27:44;;;;;;;;;22.33;19.67;;;;;27.38;53.44;100836.88;6132077;23;45214;-66
2023/06/11 10:30:09;;;;;;;;;29.75;25.00;;;;;27.32;53.41;100834.44;6156388;23;46200;-67
2023/06/11 10:32:35;;;;;;;;;17.67;17.67;;;;;27.31;53.56;100834.50;6111298;23;1088024;-66
2023/06/11 10:35:06;;;;;;;;;26.33;25.67;;;;;27.19;53.50;100828.53;6160016;23;45206;-68
2023/06/11 10:37:36;;;;;;;;;30.00;26.00;;;;;27.02;53.94;100801.78;6160809;23;45201;-67
2023/06/11 10:40:03;;;;;;;;;27.00;25.67;;;;;27.02;53.45;100800.88;6152399;23;45529;-65
2023/06/11 10:42:35;;;;;;;;;26.00;26.00;;;;;27.15;53.57;100829.59;6122451;23;45308;-69
2023/06/11 10:45:08;;;;;;;;;28.00;24.67;;;;;27.18;53.56;100828.59;6149782;23;45404;-64
2023/06/11 10:47:43;;;;;;;;;35.33;20.67;;;;;27.17;53.46;100832.28;6148665;23;45663;-66
2023/06/11 10:50:30;;;;;;;;;28.00;27.75;;;;;27.14;53.47;100826.91;6147226;23;45521;-67
2023/06/11 10:53:06;;;;;;;;;31.75;26.75;;;;;27.09;53.62;100831.69;6148405;23;45298;-67
2023/06/11 10:55:32;;;;;;;;;22.67;22.00;;;;;27.02;53.72;100826.44;6149216;23;45522;-66
2023/06/11 10:58:00;;;;;;;;;28.33;23.33;;;;;26.80;53.84;100781.69;6155536;23;44958;-66
2023/06/11 11:00:32;;;;;;;;;32.33;22.67;;;;;27.05;53.88;100835.53;6158255;23;45614;-67
2023/06/11 11:02:59;;;;;;;;;29.00;23.00;;;;;26.83;54.03;100817.22;6123928;23;45286;-65
2023/06/11 11:05:28;;;;;;;;;34.67;29.33;;;;;26.81;54.02;100835.53;6148905;23;45213;-67
2023/06/11 11:07:53;;;;;;;;;30.33;24.33;;;;;26.64;54.11;100826.16;6154374;23;45147;-66
2023/06/11 11:10:23;;;;;;;;;32.50;29.25;;;;;26.73;54.31;100834.97;6159863;23;45446;-68